createdAt,value
2022-08-22T00:02:35.054Z,5.00
2022-08-22T00:02:59.073Z,5.50
2022-08-22T00:03:12.558Z,4.43
2022-08-22T00:05:46.422Z,5.05
2022-08-22T00:08:30.677Z,4.63
2022-08-22T00:11:30.202Z,5.05
2022-08-22T00:14:20.466Z,5.07
2022-08-22T00:17:04.038Z,5.40
2022-08-22T00:19:49.397Z,4.93
2022-08-22T00:22:35.384Z,4.90
2022-08-22T00:25:30.120Z,5.25
2022-08-22T00:28:14.874Z,5.15
2022-08-22T00:31:15.619Z,4.85
2022-08-22T00:33:58.468Z,5.20
2022-08-22T00:37:02.587Z,5.68
2022-08-22T00:39:46.236Z,5.30
2022-08-22T00:42:32.375Z,5.15
2022-08-22T00:45:24.392Z,4.90
2022-08-22T00:48:17.403Z,5.38
2022-08-22T00:51:05.869Z,5.45
2022-08-22T00:54:17.532Z,5.50
2022-08-22T00:57:20.803Z,5.45
2022-08-22T01:00:13.513Z,5.60
2022-08-22T01:03:10.517Z,5.78
2022-08-22T01:06:22.967Z,5.80
2022-08-22T01:09:43.955Z,6.18
2022-08-22T01:13:07.871Z,6.07
2022-08-22T01:15:37.437Z,5.88
2022-08-22T01:18:41.236Z,6.57
2022-08-22T01:21:44.864Z,5.97
2022-08-22T01:25:05.555Z,7.10
2022-08-22T01:28:23.284Z,6.07
2022-08-22T01:31:46.574Z,6.38
2022-08-22T01:34:51.566Z,5.88
2022-08-22T01:37:47.819Z,6.38
2022-08-22T01:41:02.092Z,6.15
2022-08-22T01:44:16.238Z,6.40
2022-08-22T01:46:49.033Z,6.30
2022-08-22T01:49:37.912Z,6.55
2022-08-22T01:52:30.127Z,6.25
2022-08-22T01:55:09.926Z,6.22
2022-08-22T01:58:21.171Z,6.20
2022-08-22T02:01:32.146Z,6.47
2022-08-22T02:04:12.142Z,6.25
2022-08-22T02:07:04.282Z,6.43
2022-08-22T02:10:07.278Z,6.30
2022-08-22T02:12:45.037Z,6.60
2022-08-22T02:15:41.062Z,7.05
2022-08-22T02:18:22.980Z,6.65
2022-08-22T02:21:21.392Z,6.85
2022-08-22T02:24:04.262Z,6.47
2022-08-22T02:27:10.701Z,6.60
2022-08-22T02:30:28.488Z,6.93
2022-08-22T02:33:03.628Z,7.00
2022-08-22T02:35:47.226Z,6.57
2022-08-22T02:38:41.352Z,6.70
2022-08-22T02:41:21.652Z,6.70
2022-08-22T02:44:02.296Z,6.55
2022-08-22T02:46:59.030Z,7.57
2022-08-22T02:49:44.140Z,6.80
2022-08-22T02:52:26.629Z,6.90
2022-08-22T02:55:30.119Z,6.97
2022-08-22T02:58:33.395Z,6.90
2022-08-22T03:01:03.263Z,6.82
2022-08-22T03:03:38.574Z,6.10
2022-08-22T03:06:33.717Z,6.90
2022-08-22T03:09:15.592Z,6.82
2022-08-22T03:11:51.809Z,7.15
2022-08-22T03:14:43.469Z,7.00
2022-08-22T03:17:25.603Z,6.82
2022-08-22T03:20:15.032Z,6.95
2022-08-22T03:22:49.758Z,7.00
2022-08-22T03:25:38.676Z,6.57
2022-08-22T03:28:15.163Z,6.93
2022-08-22T03:31:20.385Z,7.00
2022-08-22T03:34:17.352Z,6.47
2022-08-22T03:37:13.468Z,7.22
2022-08-22T03:39:51.518Z,7.60
2022-08-22T03:42:46.311Z,6.70
2022-08-22T03:45:52.194Z,6.57
2022-08-22T03:49:08.229Z,6.82
2022-08-22T03:51:59.022Z,6.55
2022-08-22T03:54:48.669Z,6.40
2022-08-22T03:57:36.451Z,6.65
2022-08-22T04:00:21.908Z,6.38
2022-08-22T04:03:26.882Z,6.47
2022-08-22T04:06:22.612Z,6.95
2022-08-22T04:09:50.718Z,6.40
2022-08-22T04:13:13.564Z,6.50
2022-08-22T04:15:54.395Z,6.60
2022-08-22T04:19:05.789Z,6.03
2022-08-22T04:22:08.797Z,6.35
2022-08-22T04:24:52.221Z,6.55
2022-08-22T04:27:49.374Z,6.28
2022-08-22T04:30:53.823Z,6.80
2022-08-22T04:33:35.212Z,6.40
2022-08-22T04:36:26.531Z,6.65
2022-08-22T04:39:18.797Z,6.85
2022-08-22T04:41:53.111Z,6.72
2022-08-22T04:44:30.004Z,6.43
2022-08-22T04:47:12.746Z,6.60
2022-08-22T04:49:49.105Z,6.88
2022-08-22T04:52:40.677Z,7.25
2022-08-22T04:55:45.289Z,6.75
2022-08-22T04:58:31.631Z,6.38
2022-08-22T05:01:07.252Z,6.60
2022-08-22T05:03:44.371Z,6.65
2022-08-22T05:06:15.958Z,6.85
2022-08-22T05:08:46.445Z,7.13
2022-08-22T05:11:23.870Z,7.40
2022-08-22T05:14:13.007Z,6.90
2022-08-22T05:16:44.258Z,6.60
2022-08-22T05:19:27.030Z,7.78
2022-08-22T05:21:57.319Z,6.90
2022-08-22T05:24:42.419Z,6.65
2022-08-22T05:27:22.265Z,6.88
2022-08-22T05:29:54.172Z,6.85
2022-08-22T05:32:30.178Z,7.10
2022-08-22T05:35:01.815Z,7.10
2022-08-22T05:37:42.635Z,7.15
2022-08-22T05:40:23.453Z,7.05
2022-08-22T05:42:52.536Z,7.20
2022-08-22T05:45:21.163Z,6.55
2022-08-22T05:47:59.037Z,6.88
2022-08-22T05:50:38.684Z,6.47
2022-08-22T05:53:12.723Z,6.40
2022-08-22T05:56:02.887Z,6.53
2022-08-22T05:58:49.890Z,7.05
2022-08-22T06:01:35.832Z,6.15
2022-08-22T06:04:47.193Z,6.30
2022-08-22T06:07:42.464Z,6.70
2022-08-22T06:10:26.825Z,6.38
2022-08-22T06:13:17.217Z,6.35
2022-08-22T06:16:07.753Z,6.30
2022-08-22T06:18:40.720Z,6.80
2022-08-22T06:21:38.510Z,6.20
2022-08-22T06:24:14.233Z,6.30
2022-08-22T06:26:48.565Z,6.50
2022-08-22T06:29:33.619Z,6.25
2022-08-22T06:32:07.951Z,5.50
2022-08-22T06:34:38.468Z,5.30
2022-08-22T06:37:10.981Z,5.53
2022-08-22T06:39:42.910Z,5.90
2022-08-22T06:42:18.991Z,6.35
2022-08-22T06:45:02.781Z,5.43
2022-08-22T06:47:37.860Z,5.50
2022-08-22T06:50:23.873Z,5.65
2022-08-22T06:53:08.036Z,5.60
2022-08-22T06:55:39.319Z,6.38
2022-08-22T06:58:17.729Z,6.30
2022-08-22T07:00:54.604Z,6.70
2022-08-22T07:03:44.027Z,6.20
2022-08-22T07:06:30.291Z,5.55
2022-08-22T07:08:58.399Z,5.15
2022-08-22T07:11:33.576Z,5.38
2022-08-22T07:14:08.819Z,5.40
2022-08-22T07:16:49.902Z,5.57
2022-08-22T07:19:29.744Z,5.95
2022-08-22T07:21:59.610Z,5.53
2022-08-22T07:24:31.877Z,5.57
2022-08-22T07:27:12.741Z,5.68
2022-08-22T07:30:10.265Z,5.57
2022-08-22T07:33:26.234Z,5.43
2022-08-22T07:36:02.070Z,5.80
2022-08-22T07:38:42.607Z,5.93
2022-08-22T07:41:20.566Z,5.40
2022-08-22T07:44:19.397Z,5.88
2022-08-22T07:47:26.394Z,5.55
2022-08-22T07:50:03.996Z,5.65
2022-08-22T07:52:41.620Z,5.68
2022-08-22T07:55:23.892Z,5.55
2022-08-22T07:58:02.124Z,5.32
2022-08-22T08:00:32.470Z,5.50
2022-08-22T08:03:06.209Z,5.22
2022-08-22T08:05:37.308Z,5.00
2022-08-22T08:08:15.680Z,5.20
2022-08-22T08:10:43.049Z,5.15
2022-08-22T08:13:22.276Z,5.47
2022-08-22T08:15:50.921Z,5.35
2022-08-22T08:18:23.489Z,4.82
2022-08-22T08:20:58.556Z,4.70
2022-08-22T08:23:29.853Z,5.82
2022-08-22T08:26:10.938Z,5.22
2022-08-22T08:28:49.856Z,4.95
2022-08-22T08:31:43.195Z,5.40
2022-08-22T08:34:25.881Z,5.35
2022-08-22T08:36:56.381Z,5.05
2022-08-22T08:39:43.453Z,5.25
2022-08-22T08:42:56.258Z,5.45
2022-08-22T08:45:59.300Z,5.43
2022-08-22T08:48:52.769Z,5.28
2022-08-22T08:52:08.698Z,5.40
2022-08-22T08:54:55.607Z,5.72
2022-08-22T08:57:58.315Z,5.28
2022-08-22T09:00:45.737Z,5.20
2022-08-22T09:03:57.239Z,5.15
2022-08-22T09:07:18.700Z,5.80
2022-08-22T09:10:11.398Z,5.10
2022-08-22T09:13:40.611Z,4.78
2022-08-22T09:16:45.601Z,4.40
2022-08-22T09:19:42.820Z,4.70
2022-08-22T09:22:58.003Z,5.22
2022-08-22T09:25:45.320Z,4.85
2022-08-22T09:28:59.638Z,5.47
2022-08-22T09:31:51.928Z,5.72
2022-08-22T09:34:57.396Z,4.68
2022-08-22T09:37:58.809Z,5.13
2022-08-22T09:40:42.824Z,5.05
2022-08-22T09:43:20.995Z,5.38
2022-08-22T09:46:02.950Z,5.63
2022-08-22T09:49:06.891Z,5.85
2022-08-22T09:51:53.653Z,5.05
2022-08-22T09:54:37.497Z,5.38
2022-08-22T09:57:36.193Z,5.10
2022-08-22T10:00:06.361Z,5.20
2022-08-22T10:03:06.305Z,5.22
2022-08-22T10:06:01.404Z,5.05
2022-08-22T10:08:50.594Z,5.10
2022-08-22T10:11:51.702Z,5.05
2022-08-22T10:14:22.776Z,4.85
2022-08-22T10:16:59.969Z,6.07
2022-08-22T10:19:42.439Z,4.90
2022-08-22T10:22:30.809Z,5.03
2022-08-22T10:25:18.707Z,4.95
2022-08-22T10:28:16.159Z,5.50
2022-08-22T10:31:19.890Z,5.20
2022-08-22T10:34:22.723Z,5.35
2022-08-22T10:37:16.218Z,5.35
2022-08-22T10:39:49.285Z,5.30
2022-08-22T10:42:54.274Z,5.28
2022-08-22T10:45:36.759Z,4.90
2022-08-22T10:48:10.411Z,5.47
2022-08-22T10:51:03.507Z,5.32
2022-08-22T10:53:57.946Z,4.60
2022-08-22T10:56:35.421Z,5.20
2022-08-22T10:59:38.117Z,5.10
2022-08-22T11:02:48.800Z,5.18
2022-08-22T11:05:23.018Z,5.38
2022-08-22T11:08:21.816Z,4.90
2022-08-22T11:11:32.734Z,5.03
2022-08-22T11:14:35.230Z,5.10
2022-08-22T11:17:27.453Z,5.20
2022-08-22T11:20:14.916Z,5.30
2022-08-22T11:23:00.901Z,5.13
2022-08-22T11:26:04.957Z,5.22
2022-08-22T11:29:11.309Z,6.05
2022-08-22T11:32:17.004Z,5.13
2022-08-22T11:35:01.326Z,5.22
2022-08-22T11:37:45.320Z,5.30
2022-08-22T11:40:28.381Z,5.05
2022-08-22T11:43:32.669Z,5.32
2022-08-22T11:46:24.858Z,5.45
2022-08-22T11:49:25.620Z,6.03
2022-08-22T11:52:22.263Z,5.30
2022-08-22T11:55:16.856Z,5.18
2022-08-22T11:57:50.251Z,5.15
2022-08-22T12:00:43.610Z,4.88
2022-08-22T12:04:03.403Z,5.45
2022-08-22T12:07:24.346Z,5.70
2022-08-22T12:10:13.758Z,5.03
2022-08-22T12:13:07.845Z,5.30
2022-08-22T12:15:54.027Z,5.45
2022-08-22T12:18:53.319Z,5.82
2022-08-22T12:22:04.374Z,5.35
2022-08-22T12:24:36.976Z,5.50
2022-08-22T12:27:55.469Z,5.82
2022-08-22T12:31:07.643Z,5.35
2022-08-22T12:33:58.637Z,6.13
2022-08-22T12:36:59.352Z,5.40
2022-08-22T12:39:32.356Z,5.53
2022-08-22T12:42:21.286Z,6.07
2022-08-22T12:45:12.147Z,5.60
2022-08-22T12:48:05.179Z,5.75
2022-08-22T12:50:49.806Z,5.32
2022-08-22T12:53:29.570Z,5.50
2022-08-22T12:57:02.250Z,4.97
2022-08-22T12:59:35.115Z,5.32
2022-08-22T13:02:34.884Z,5.65
2022-08-22T13:05:21.225Z,5.20
2022-08-22T13:08:04.314Z,4.80
2022-08-22T13:10:42.869Z,5.30
2022-08-22T13:13:56.202Z,5.20
2022-08-22T13:16:27.288Z,4.88
2022-08-22T13:19:07.441Z,5.53
2022-08-22T13:21:42.850Z,5.20
2022-08-22T13:24:22.542Z,5.28
2022-08-22T13:26:57.208Z,5.53
2022-08-22T13:29:44.520Z,5.80
2022-08-22T13:32:44.411Z,5.07
2022-08-22T13:35:24.633Z,5.05
2022-08-22T13:38:03.570Z,5.15
2022-08-22T13:40:32.678Z,5.45
2022-08-22T13:43:08.875Z,4.90
2022-08-22T13:45:38.767Z,4.93
2022-08-22T13:48:14.313Z,4.53
2022-08-22T13:51:08.123Z,5.30
2022-08-22T13:53:49.880Z,4.45
2022-08-22T13:56:48.134Z,4.80
2022-08-22T13:59:50.988Z,4.80
2022-08-22T14:02:43.188Z,4.90
2022-08-22T14:05:26.041Z,4.82
2022-08-22T14:08:28.018Z,4.90
2022-08-22T14:11:15.103Z,5.07
2022-08-22T14:13:49.733Z,5.50
2022-08-22T14:16:45.735Z,5.53
2022-08-22T14:19:53.095Z,5.22
2022-08-22T14:22:31.657Z,5.10
2022-08-22T14:25:05.073Z,4.82
2022-08-22T14:27:41.170Z,5.00
2022-08-22T14:30:20.973Z,5.05
2022-08-22T14:33:10.966Z,5.10
2022-08-22T14:35:52.684Z,5.05
2022-08-22T14:38:30.491Z,4.93
2022-08-22T14:41:07.616Z,5.50
2022-08-22T14:43:35.051Z,5.47
2022-08-22T14:46:14.746Z,5.43
2022-08-22T14:49:20.923Z,5.15
2022-08-22T14:52:05.268Z,4.85
2022-08-22T14:54:33.752Z,5.20
2022-08-22T14:57:10.149Z,5.00
2022-08-22T14:59:50.954Z,4.93
2022-08-22T15:02:31.519Z,4.90
2022-08-22T15:05:17.732Z,5.32
2022-08-22T15:07:56.789Z,5.60
2022-08-22T15:10:34.321Z,5.50
2022-08-22T15:13:08.046Z,5.15
2022-08-22T15:15:52.974Z,5.32
2022-08-22T15:18:28.158Z,5.40
2022-08-22T15:21:25.611Z,5.88
2022-08-22T15:23:59.645Z,5.25
2022-08-22T15:26:38.715Z,5.65
2022-08-22T15:29:17.520Z,5.10
2022-08-22T15:31:46.734Z,4.95
2022-08-22T15:34:37.902Z,5.38
2022-08-22T15:37:18.018Z,5.05
2022-08-22T15:40:40.467Z,6.00
2022-08-22T15:43:35.357Z,5.15
2022-08-22T15:46:21.097Z,5.68
2022-08-22T15:49:02.625Z,5.55
2022-08-22T15:52:01.269Z,5.22
2022-08-22T15:54:46.799Z,4.85
2022-08-22T15:57:40.404Z,4.97
2022-08-22T16:00:34.774Z,5.82
2022-08-22T16:03:22.767Z,6.20
2022-08-22T16:06:00.201Z,5.43
2022-08-22T16:08:45.370Z,5.93
2022-08-22T16:11:33.402Z,5.60
2022-08-22T16:14:35.955Z,5.28
2022-08-22T16:17:30.196Z,6.10
2022-08-22T16:20:15.863Z,5.82
2022-08-22T16:22:59.084Z,5.78
2022-08-22T16:25:44.994Z,5.90
2022-08-22T16:28:56.875Z,5.60
2022-08-22T16:31:37.465Z,5.65
2022-08-22T16:34:16.834Z,5.70
2022-08-22T16:37:03.714Z,5.53
2022-08-22T16:40:07.541Z,5.88
2022-08-22T16:42:41.441Z,5.95
2022-08-22T16:45:34.411Z,5.75
2022-08-22T16:48:22.706Z,6.05
2022-08-22T16:51:14.227Z,5.43
2022-08-22T16:53:46.087Z,5.63
2022-08-22T16:57:00.671Z,5.63
2022-08-22T16:59:46.891Z,6.65
2022-08-22T17:02:54.893Z,5.40
2022-08-22T17:05:44.673Z,5.68
2022-08-22T17:09:09.552Z,5.07
2022-08-22T17:12:08.301Z,5.32
2022-08-22T17:15:16.057Z,5.32
2022-08-22T17:18:18.139Z,5.35
2022-08-22T17:21:12.078Z,4.90
2022-08-22T17:24:06.167Z,5.32
2022-08-22T17:27:05.926Z,5.63
2022-08-22T17:30:00.645Z,5.65
2022-08-22T17:32:38.610Z,5.72
2022-08-22T17:35:33.729Z,5.47
2022-08-22T17:38:55.818Z,5.32
2022-08-22T17:41:47.053Z,5.60
2022-08-22T17:44:37.809Z,5.93
2022-08-22T17:47:17.150Z,5.63
2022-08-22T17:49:48.140Z,5.57
2022-08-22T17:52:36.427Z,5.85
2022-08-22T17:55:25.252Z,5.60
2022-08-22T17:58:06.811Z,5.53
2022-08-22T18:00:49.185Z,5.93
2022-08-22T18:03:31.704Z,5.40
2022-08-22T18:06:04.400Z,5.78
2022-08-22T18:11:42.907Z,5.72
2022-08-22T18:14:33.533Z,5.57
2022-08-22T18:17:01.152Z,5.90
2022-08-22T18:20:05.691Z,5.60
2022-08-22T18:22:44.005Z,5.38
2022-08-22T18:25:30.629Z,6.13
2022-08-22T18:28:26.215Z,6.15
2022-08-22T18:31:09.266Z,7.50
2022-08-22T18:34:00.420Z,8.45
2022-08-22T18:36:35.814Z,9.80
2022-08-22T18:39:25.490Z,8.73
2022-08-22T18:42:12.494Z,8.73
2022-08-22T18:44:40.147Z,7.47
2022-08-22T18:47:20.464Z,6.97
2022-08-22T18:49:54.613Z,7.00
2022-08-22T18:52:27.420Z,7.38
2022-08-22T18:55:22.650Z,6.75
2022-08-22T18:57:58.642Z,6.00
2022-08-22T19:00:57.643Z,6.70
2022-08-22T19:03:51.762Z,5.90
2022-08-22T19:06:38.306Z,5.70
2022-08-22T19:09:39.699Z,6.18
2022-08-22T19:12:41.661Z,6.60
2022-08-22T19:15:39.064Z,6.20
2022-08-22T19:18:44.404Z,7.15
2022-08-22T19:21:51.557Z,6.40
2022-08-22T19:24:27.557Z,6.85
2022-08-22T19:27:23.496Z,7.07
2022-08-22T19:29:56.645Z,7.03
2022-08-22T19:32:45.442Z,6.50
2022-08-22T19:35:45.559Z,6.82
2022-08-22T19:38:13.154Z,6.70
2022-08-22T19:40:53.514Z,7.13
2022-08-22T19:43:34.768Z,6.50
2022-08-22T19:46:07.360Z,6.53
2022-08-22T19:48:46.900Z,6.93
2022-08-22T19:51:20.392Z,6.68
2022-08-22T19:54:02.234Z,7.30
2022-08-22T19:56:55.622Z,6.45
2022-08-22T19:59:51.075Z,7.18
2022-08-22T20:03:02.007Z,6.63
2022-08-22T20:05:56.899Z,6.47
2022-08-22T20:08:31.309Z,6.75
2022-08-22T20:11:18.989Z,6.47
2022-08-22T20:13:46.108Z,6.88
2022-08-22T20:16:23.784Z,6.68
2022-08-22T20:19:06.612Z,7.43
2022-08-22T20:22:00.625Z,7.43
2022-08-22T20:24:39.722Z,7.45
2022-08-22T20:27:47.985Z,6.93
2022-08-22T20:30:31.689Z,7.25
2022-08-22T20:33:10.163Z,7.35
2022-08-22T20:35:56.122Z,6.97
2022-08-22T20:38:32.454Z,6.88
2022-08-22T20:41:21.074Z,6.97
2022-08-22T20:43:56.217Z,7.05
2022-08-22T20:47:02.771Z,7.03
2022-08-22T20:49:37.736Z,6.78
2022-08-22T20:52:09.020Z,6.80
2022-08-22T20:54:41.153Z,7.70
2022-08-22T20:57:18.221Z,6.82
2022-08-22T20:59:56.731Z,7.32
2022-08-22T21:02:55.862Z,7.38
2022-08-22T21:05:33.462Z,7.72
2022-08-22T21:08:03.388Z,7.53
2022-08-22T21:10:59.308Z,7.65
2022-08-22T21:13:35.266Z,7.75
2022-08-22T21:16:19.963Z,7.70
2022-08-22T21:18:50.936Z,7.85
2022-08-22T21:21:19.400Z,7.10
2022-08-22T21:23:55.495Z,7.38
2022-08-22T21:26:33.297Z,7.45
2022-08-22T21:29:20.225Z,7.28
2022-08-22T21:31:54.724Z,7.78
2022-08-22T21:34:35.779Z,7.68
2022-08-22T21:37:35.445Z,7.60
2022-08-22T21:40:24.370Z,7.80
2022-08-22T21:43:07.003Z,7.35
2022-08-22T21:45:39.024Z,8.00
2022-08-22T21:48:59.271Z,8.30
2022-08-22T21:51:46.084Z,8.23
2022-08-22T21:54:26.095Z,9.50
2022-08-22T21:56:56.344Z,9.15
2022-08-22T21:59:51.895Z,8.57
2022-08-22T22:02:37.584Z,8.55
2022-08-22T22:05:17.638Z,9.38
2022-08-22T22:07:46.966Z,8.45
2022-08-22T22:10:17.916Z,8.15
2022-08-22T22:12:48.311Z,7.22
2022-08-22T22:15:23.768Z,7.80
2022-08-22T22:17:51.162Z,7.78
2022-08-22T22:20:21.693Z,7.75
2022-08-22T22:22:49.075Z,7.43
2022-08-22T22:25:41.357Z,7.55
2022-08-22T22:28:14.128Z,7.97
2022-08-22T22:30:42.547Z,7.57
2022-08-22T22:33:10.201Z,7.47
2022-08-22T22:35:41.027Z,7.60
2022-08-22T22:38:08.624Z,7.68
2022-08-22T22:40:36.192Z,7.60
2022-08-22T22:43:03.747Z,8.13
2022-08-22T22:45:30.783Z,7.70
2022-08-22T22:47:57.928Z,8.63
2022-08-22T22:50:25.058Z,7.97
2022-08-22T22:52:54.131Z,7.78
2022-08-22T22:55:24.944Z,7.70
2022-08-22T22:57:59.174Z,7.50
2022-08-22T23:00:30.586Z,6.93
2022-08-22T23:03:01.063Z,7.82
2022-08-22T23:05:32.996Z,8.30
2022-08-22T23:08:00.820Z,7.88
2022-08-22T23:10:30.825Z,7.85
2022-08-22T23:12:59.001Z,7.25
2022-08-22T23:15:26.730Z,7.80
2022-08-22T23:17:53.672Z,8.25
2022-08-22T23:20:20.677Z,7.90
2022-08-22T23:22:48.487Z,7.43
2022-08-22T23:25:15.553Z,7.57
2022-08-22T23:27:42.985Z,8.13
2022-08-22T23:30:11.213Z,7.70
2022-08-22T23:32:38.669Z,8.02
2022-08-22T23:35:07.636Z,7.72
2022-08-22T23:37:34.793Z,8.18
2022-08-22T23:40:02.483Z,8.02
2022-08-22T23:42:29.606Z,7.90
2022-08-22T23:44:56.662Z,8.30
2022-08-22T23:47:23.627Z,7.88
2022-08-22T23:49:50.559Z,7.88
2022-08-22T23:52:17.600Z,7.50
2022-08-22T23:54:44.603Z,8.10
2022-08-22T23:57:12.674Z,8.02
2022-08-22T23:59:47.970Z,8.05
